Time;durP1;ratioP1;P1;durP2;ratioP2;P2;SDS_P1;SDS_P2;PMS_P1;PMS_P2;Temp;Humidity;BMP_temperature;BMP_pressure;BME280_temperature;BME280_humidity;BME280_pressure;Samples;Min_cycle;Max_cycle;Signal;HPM_P1;HPM_P2
2023/02/22 00:00:22;;;;;;;4.88;4.18;;;7.10;99.90;;;;;;4949187;28;20629;-84
2023/02/22 00:02:50;;;;;;;4.28;3.47;;;7.00;99.90;;;;;;4961975;28;20110;-84
2023/02/22 00:05:18;;;;;;;4.93;4.03;;;7.10;99.90;;;;;;4966746;28;20465;-84
2023/02/22 00:07:46;;;;;;;5.28;4.28;;;7.10;99.90;;;;;;4941488;28;20057;-85
2023/02/22 00:10:19;;;;;;;4.57;3.70;;;7.10;99.90;;;;;;4961804;28;20089;-84
2023/02/22 00:12:53;;;;;;;4.70;3.90;;;7.10;99.90;;;;;;4944873;28;20058;-84
2023/02/22 00:15:22;;;;;;;4.80;3.83;;;7.00;99.90;;;;;;4946479;28;20051;-85
2023/02/22 00:17:48;;;;;;;4.50;3.95;;;7.10;99.90;;;;;;4937795;28;20059;-84
2023/02/22 00:20:18;;;;;;;4.35;3.83;;;7.10;99.90;;;;;;4947623;28;20050;-85
2023/02/22 00:22:46;;;;;;;4.47;4.05;;;7.10;99.90;;;;;;4939322;28;20114;-85
2023/02/22 00:25:13;;;;;;;3.92;3.47;;;7.20;99.90;;;;;;4939871;28;20051;-84
2023/02/22 00:27:40;;;;;;;4.10;3.70;;;7.20;99.90;;;;;;4959988;28;20059;-85
2023/02/22 00:30:14;;;;;;;4.30;3.70;;;7.20;99.90;;;;;;4958156;28;20264;-85
2023/02/22 00:32:41;;;;;;;4.78;3.83;;;7.20;99.90;;;;;;4971471;28;20054;-85
2023/02/22 00:35:08;;;;;;;4.70;3.70;;;7.20;99.90;;;;;;4949441;28;20157;-84
2023/02/22 00:37:35;;;;;;;4.28;3.63;;;7.30;99.90;;;;;;4958107;28;20126;-84
2023/02/22 00:40:07;;;;;;;4.25;3.60;;;7.20;99.90;;;;;;4936922;28;20501;-84
2023/02/22 00:42:34;;;;;;;3.95;3.35;;;7.20;99.90;;;;;;4960231;28;20375;-85
2023/02/22 00:45:02;;;;;;;3.80;3.10;;;7.30;99.90;;;;;;4950395;28;20126;-85
2023/02/22 00:47:29;;;;;;;4.47;3.38;;;7.30;99.90;;;;;;4957161;28;20134;-84
2023/02/22 00:49:56;;;;;;;3.95;3.40;;;7.30;99.90;;;;;;4954447;28;20493;-83
2023/02/22 00:52:23;;;;;;;4.10;3.63;;;7.30;99.90;;;;;;4948400;28;20180;-84
2023/02/22 00:54:50;;;;;;;4.32;3.58;;;7.30;99.90;;;;;;4936370;28;20078;-84
2023/02/22 00:57:18;;;;;;;4.22;3.33;;;7.30;99.90;;;;;;4961903;28;20057;-84
2023/02/22 00:59:44;;;;;;;4.63;3.63;;;7.40;99.90;;;;;;4947970;28;20094;-85
2023/02/22 01:02:12;;;;;;;3.53;3.08;;;7.40;99.90;;;;;;4939216;28;20054;-84
2023/02/22 01:04:40;;;;;;;4.60;3.92;;;7.40;99.90;;;;;;4947937;28;20501;-85
2023/02/22 01:07:07;;;;;;;3.85;3.20;;;7.40;99.90;;;;;;4963360;28;20057;-84
2023/02/22 01:09:35;;;;;;;3.85;3.30;;;7.40;99.90;;;;;;4942287;28;20051;-84
2023/02/22 01:12:02;;;;;;;5.00;3.92;;;7.50;99.90;;;;;;4939364;28;20086;-84
2023/02/22 01:14:29;;;;;;;3.90;3.45;;;7.50;99.90;;;;;;4947549;28;20050;-85
2023/02/22 01:16:56;;;;;;;4.80;4.03;;;7.50;99.90;;;;;;4957803;28;20054;-84
2023/02/22 01:19:23;;;;;;;4.32;3.83;;;7.50;99.90;;;;;;4958906;28;20066;-83
2023/02/22 01:21:50;;;;;;;4.15;3.75;;;7.50;99.90;;;;;;4956254;28;20384;-85
2023/02/22 01:24:17;;;;;;;4.80;4.00;;;7.50;99.90;;;;;;4965546;28;20054;-84
2023/02/22 01:26:51;;;;;;;5.32;4.05;;;7.50;99.90;;;;;;4965254;28;20129;-85
2023/02/22 01:29:19;;;;;;;;;;;7.50;99.90;;;;;;4944326;28;20482;-84
2023/02/22 01:31:51;;;;;;;3.75;3.08;;;7.50;99.90;;;;;;4980960;28;19944;-84
2023/02/22 01:34:18;;;;;;;5.60;4.45;;;7.40;99.90;;;;;;4950010;28;20499;-84
2023/02/22 01:36:46;;;;;;;4.03;3.42;;;7.40;99.90;;;;;;4962959;28;20057;-85
2023/02/22 01:39:13;;;;;;;4.55;3.97;;;7.30;99.90;;;;;;4964034;28;20066;-84
2023/02/22 01:41:40;;;;;;;4.70;4.10;;;7.30;99.90;;;;;;4958376;28;20081;-84
2023/02/22 01:44:32;;;;;;;5.10;4.03;;;7.30;99.90;;;;;;4947288;28;20057;-84
2023/02/22 01:47:01;;;;;;;5.82;5.05;;;7.20;99.90;;;;;;4959655;28;20434;-84
2023/02/22 01:49:45;;;;;;;6.05;5.30;;;7.20;99.90;;;;;;4960284;28;20061;-84
2023/02/22 01:52:13;;;;;;;;;;;7.20;99.90;;;;;;4961883;28;20609;-85
2023/02/22 01:54:42;;;;;;;4.30;3.65;;;7.30;99.90;;;;;;4964361;28;19948;-84
2023/02/22 01:57:28;;;;;;;4.32;3.70;;;7.30;99.90;;;;;;4941284;28;20398;-84
2023/02/22 02:00:00;;;;;;;5.03;3.95;;;7.30;99.90;;;;;;4956883;28;20058;-85
2023/02/22 02:02:29;;;;;;;5.45;4.57;;;7.40;99.90;;;;;;4942609;28;20054;-85
2023/02/22 02:04:56;;;;;;;4.97;3.90;;;7.40;99.90;;;;;;4983972;28;20474;-85
2023/02/22 02:07:23;;;;;;;5.35;4.65;;;7.30;99.90;;;;;;4963006;28;20070;-86
2023/02/22 02:09:59;;;;;;;6.82;4.60;;;7.30;99.90;;;;;;4952574;28;20058;-85
2023/02/22 02:12:28;;;;;;;6.05;5.15;;;7.30;99.90;;;;;;4980968;28;20051;-84
2023/02/22 02:15:15;;;;;;;7.28;6.32;;;7.30;99.90;;;;;;4942247;28;20085;-84
2023/02/22 02:17:42;;;;;;;6.75;5.97;;;7.30;99.90;;;;;;4961044;28;20051;-86
2023/02/22 02:20:18;;;;;;;7.47;6.65;;;7.30;99.90;;;;;;4948967;28;20050;-84
2023/02/22 02:22:45;;;;;;;10.68;8.35;;;7.20;99.90;;;;;;4957711;28;20475;-86
2023/02/22 02:25:36;;;;;;;10.45;8.48;;;7.20;99.90;;;;;;4964476;28;20093;-85
2023/02/22 02:28:16;;;;;;;11.52;9.45;;;7.20;99.90;;;;;;4965486;28;20572;-83
2023/02/22 02:31:19;;;;;;;8.30;7.00;;;7.20;99.90;;;;;;4973897;23;20524;-76
2023/02/22 02:34:02;;;;;;;8.38;6.72;;;7.20;99.90;;;;;;4987797;28;20520;-78
2023/02/22 02:37:11;;;;;;;5.22;4.70;;;7.20;99.90;;;;;;4978896;28;20056;-78
2023/02/22 02:39:50;;;;;;;6.43;5.75;;;7.20;99.90;;;;;;4939600;29;20059;-78
2023/02/22 02:42:21;;;;;;;5.97;5.20;;;7.30;99.90;;;;;;4903238;29;20047;-79
2023/02/22 02:44:53;;;;;;;6.68;5.72;;;7.30;99.90;;;;;;4944596;28;20070;-78
2023/02/22 02:47:26;;;;;;;6.65;5.32;;;7.30;99.90;;;;;;4945327;28;20820;-78
2023/02/22 02:50:01;;;;;;;7.43;5.88;;;7.30;99.90;;;;;;4957491;28;20046;-78
2023/02/22 02:52:29;;;;;;;7.82;5.65;;;7.30;99.90;;;;;;4963811;28;20725;-78
2023/02/22 02:54:56;;;;;;;6.05;4.97;;;7.30;99.90;;;;;;4963354;28;20125;-78
2023/02/22 02:57:23;;;;;;;6.10;5.03;;;7.40;99.90;;;;;;4962594;28;20178;-78
2023/02/22 02:59:50;;;;;;;5.15;4.45;;;7.40;99.90;;;;;;4945053;28;20054;-78
2023/02/22 03:02:48;;;;;;;6.05;4.85;;;7.40;99.90;;;;;;4942575;28;20142;-78
2023/02/22 03:05:35;;;;;;;5.35;4.30;;;7.40;99.90;;;;;;4955553;28;20090;-78
2023/02/22 03:08:06;;;;;;;5.55;4.43;;;7.40;99.90;;;;;;4277796;28;10000713;-78
2023/02/22 03:11:00;;;;;;;5.28;4.20;;;7.40;99.90;;;;;;4965792;28;20047;-78
2023/02/22 03:13:43;;;;;;;5.65;4.65;;;7.40;99.90;;;;;;4964004;28;20194;-77
2023/02/22 03:16:40;;;;;;;6.18;4.85;;;7.40;99.90;;;;;;4978635;28;20051;-77
2023/02/22 03:19:16;;;;;;;4.88;4.38;;;7.40;99.90;;;;;;4963171;28;20055;-78
2023/02/22 03:21:53;;;;;;;4.75;4.00;;;7.40;99.90;;;;;;4959771;28;20140;-77
2023/02/22 03:24:54;;;;;;;5.82;4.15;;;7.40;99.90;;;;;;4968101;28;20050;-78
2023/02/22 03:27:31;;;;;;;5.03;4.50;;;7.40;99.90;;;;;;4957062;28;20043;-78
2023/02/22 03:30:00;;;;;;;5.93;4.55;;;7.40;99.90;;;;;;4962339;28;20096;-77
2023/02/22 03:32:32;;;;;;;4.95;4.07;;;7.40;99.90;;;;;;4946400;28;20532;-78
2023/02/22 03:35:10;;;;;;;5.30;4.68;;;7.40;99.90;;;;;;4947291;28;20695;-77
2023/02/22 03:37:39;;;;;;;6.50;4.88;;;7.40;99.90;;;;;;4961304;28;20078;-78
2023/02/22 03:40:13;;;;;;;6.38;5.28;;;7.40;99.90;;;;;;4931938;28;20173;-78
2023/02/22 03:42:49;;;;;;;5.35;4.35;;;7.40;99.90;;;;;;4966286;28;20051;-78
2023/02/22 03:45:17;;;;;;;6.07;4.50;;;7.30;99.90;;;;;;4959431;28;20109;-77
2023/02/22 03:47:48;;;;;;;6.30;4.90;;;7.40;99.90;;;;;;4965185;28;20074;-78
2023/02/22 03:50:17;;;;;;;7.18;5.82;;;7.30;99.90;;;;;;4946094;28;20106;-77
2023/02/22 03:52:46;;;;;;;6.72;5.82;;;7.30;99.90;;;;;;4948358;28;20054;-77
2023/02/22 03:55:16;;;;;;;6.68;5.63;;;7.30;99.90;;;;;;4948293;28;20643;-77
2023/02/22 03:57:55;;;;;;;7.35;5.97;;;7.30;99.90;;;;;;4949160;28;20046;-78
2023/02/22 04:00:24;;;;;;;7.70;6.85;;;7.30;99.90;;;;;;4956178;28;20055;-78
2023/02/22 04:02:51;;;;;;;7.68;6.53;;;7.30;99.90;;;;;;4957777;28;20051;-77
2023/02/22 04:05:18;;;;;;;8.90;7.50;;;7.30;99.90;;;;;;4965983;28;20148;-78
2023/02/22 04:07:45;;;;;;;8.40;6.75;;;7.30;99.90;;;;;;4948793;28;20039;-78
2023/02/22 04:10:12;;;;;;;7.68;6.30;;;7.20;99.90;;;;;;4950445;28;20062;-78
2023/02/22 04:12:39;;;;;;;6.60;5.60;;;7.30;99.90;;;;;;4958510;28;20561;-78
2023/02/22 04:15:06;;;;;;;6.72;5.57;;;7.30;99.90;;;;;;4963491;28;20456;-79
2023/02/22 04:17:34;;;;;;;6.10;5.43;;;7.30;99.90;;;;;;4950187;28;20046;-78
2023/02/22 04:20:00;;;;;;;7.65;6.50;;;7.30;99.90;;;;;;4966294;28;20414;-77
2023/02/22 04:22:27;;;;;;;7.97;6.80;;;7.30;99.90;;;;;;4946937;28;20089;-78
2023/02/22 04:24:54;;;;;;;7.80;6.97;;;7.20;99.90;;;;;;4948269;28;20058;-78
2023/02/22 04:27:21;;;;;;;8.00;6.47;;;7.20;99.90;;;;;;4948154;28;20082;-77
2023/02/22 04:29:48;;;;;;;7.82;6.70;;;7.20;99.90;;;;;;4965138;28;20054;-78
2023/02/22 04:32:14;;;;;;;8.05;6.70;;;7.20;99.90;;;;;;4964157;28;20430;-77
2023/02/22 04:34:41;;;;;;;8.40;7.30;;;7.20;99.90;;;;;;4964646;28;20144;-78
2023/02/22 04:37:09;;;;;;;8.63;6.95;;;7.20;99.90;;;;;;4947934;28;20153;-79
2023/02/22 04:39:36;;;;;;;7.15;6.40;;;7.20;99.90;;;;;;4948233;28;20068;-77
2023/02/22 04:42:03;;;;;;;7.05;6.30;;;7.20;99.90;;;;;;4964439;28;20058;-78
2023/02/22 04:44:31;;;;;;;7.25;6.38;;;7.10;99.90;;;;;;4960453;28;20173;-78
2023/02/22 04:46:58;;;;;;;6.93;5.97;;;7.10;99.90;;;;;;4960862;28;20565;-77
2023/02/22 04:49:24;;;;;;;7.30;6.50;;;7.10;99.90;;;;;;4948585;28;20133;-77
2023/02/22 04:51:51;;;;;;;6.85;5.93;;;7.10;99.90;;;;;;4955782;28;20055;-77
2023/02/22 04:54:18;;;;;;;6.03;5.43;;;7.10;99.90;;;;;;4964636;28;20050;-78
2023/02/22 04:56:45;;;;;;;7.03;6.32;;;7.10;99.90;;;;;;4963885;28;20684;-78
2023/02/22 04:59:11;;;;;;;7.55;6.15;;;7.20;99.90;;;;;;4948732;28;20047;-78
2023/02/22 05:01:38;;;;;;;6.88;5.60;;;7.20;99.90;;;;;;4945722;28;20046;-78
2023/02/22 05:04:06;;;;;;;6.07;5.47;;;7.20;99.90;;;;;;4963876;28;20622;-79
2023/02/22 05:06:33;;;;;;;7.18;5.60;;;7.20;99.90;;;;;;4930679;28;20074;-78
2023/02/22 05:08:59;;;;;;;5.43;4.88;;;7.20;99.90;;;;;;4932497;28;20461;-78
2023/02/22 05:11:26;;;;;;;7.07;5.90;;;7.20;99.90;;;;;;4947745;28;20126;-77
2023/02/22 05:13:53;;;;;;;6.07;5.47;;;7.20;99.90;;;;;;4942959;28;20134;-77
2023/02/22 05:16:20;;;;;;;6.55;5.85;;;7.30;99.90;;;;;;4975502;28;20058;-78
2023/02/22 05:18:47;;;;;;;6.18;5.57;;;7.30;99.90;;;;;;4945262;28;20050;-78
2023/02/22 05:21:13;;;;;;;7.80;6.95;;;7.30;99.90;;;;;;4963818;28;20047;-79
2023/02/22 05:23:41;;;;;;;7.22;5.85;;;7.20;99.90;;;;;;4947312;28;20059;-79
2023/02/22 05:26:09;;;;;;;6.32;5.60;;;7.20;99.90;;;;;;4960765;28;20514;-78
2023/02/22 05:28:37;;;;;;;6.53;5.63;;;7.20;99.90;;;;;;4976484;28;20105;-78
2023/02/22 05:31:06;;;;;;;7.38;6.63;;;7.20;99.90;;;;;;4976258;28;20456;-77
2023/02/22 05:33:33;;;;;;;7.00;6.30;;;7.20;99.90;;;;;;4974296;28;20043;-77
2023/02/22 05:35:59;;;;;;;6.32;5.70;;;7.30;99.90;;;;;;4933430;28;20086;-78
2023/02/22 05:38:27;;;;;;;7.57;6.57;;;7.20;99.90;;;;;;4931573;28;20142;-76
2023/02/22 05:40:53;;;;;;;6.75;5.70;;;7.20;99.90;;;;;;4964939;28;20047;-78
2023/02/22 05:43:20;;;;;;;7.70;6.78;;;7.20;99.90;;;;;;4961923;28;20241;-78
2023/02/22 05:45:48;;;;;;;9.90;6.43;;;7.20;99.90;;;;;;4958778;28;20647;-77
2023/02/22 05:48:15;;;;;;;6.93;6.00;;;7.20;99.90;;;;;;4956149;28;20058;-78
2023/02/22 05:50:42;;;;;;;7.28;6.43;;;7.20;99.90;;;;;;4942685;28;20549;-77
2023/02/22 05:53:09;;;;;;;6.85;5.97;;;7.20;99.90;;;;;;4956359;28;20051;-78
2023/02/22 05:55:36;;;;;;;7.95;6.63;;;7.20;99.90;;;;;;4956347;28;20066;-79
2023/02/22 05:58:04;;;;;;;7.07;6.18;;;7.20;99.90;;;;;;4940491;28;20050;-79
2023/02/22 06:00:31;;;;;;;9.80;8.50;;;7.20;99.90;;;;;;4961835;28;20085;-78
2023/02/22 06:03:03;;;;;;;13.63;11.02;;;7.20;99.90;;;;;;4941253;28;20051;-78
2023/02/22 06:05:30;;;;;;;13.38;10.77;;;7.20;99.90;;;;;;4956757;28;20085;-78
2023/02/22 06:07:57;;;;;;;10.55;9.02;;;7.10;99.90;;;;;;4954230;28;20055;-78
2023/02/22 06:10:24;;;;;;;11.68;9.43;;;7.10;99.90;;;;;;4960345;28;20382;-79
2023/02/22 06:12:52;;;;;;;9.00;7.47;;;7.10;99.90;;;;;;4943910;28;20475;-78
2023/02/22 06:15:19;;;;;;;8.65;7.15;;;7.20;99.90;;;;;;4960166;28;20161;-78
2023/02/22 06:17:46;;;;;;;9.18;7.22;;;7.20;99.90;;;;;;4944302;28;20101;-78
2023/02/22 06:20:14;;;;;;;7.90;6.43;;;7.20;99.90;;;;;;4958128;28;20105;-78
2023/02/22 06:22:41;;;;;;;8.13;6.65;;;7.20;99.90;;;;;;4954957;28;20050;-78
2023/02/22 06:25:08;;;;;;;6.78;5.70;;;7.30;99.90;;;;;;4975436;28;20747;-79
2023/02/22 06:27:35;;;;;;;7.13;6.18;;;7.30;99.90;;;;;;4942242;28;20141;-78
2023/02/22 06:30:03;;;;;;;7.10;5.82;;;7.30;99.90;;;;;;4945406;28;20047;-78
2023/02/22 06:32:30;;;;;;;8.05;6.13;;;7.30;99.90;;;;;;4959971;28;20065;-78
2023/02/22 06:34:56;;;;;;;7.75;6.28;;;7.30;99.90;;;;;;4942148;28;20064;-78
2023/02/22 06:37:23;;;;;;;6.85;5.65;;;7.40;99.90;;;;;;4960142;28;20043;-78
2023/02/22 06:39:50;;;;;;;6.40;5.25;;;7.40;99.90;;;;;;4964363;28;20055;-78
2023/02/22 06:42:17;;;;;;;6.97;5.97;;;7.40;99.90;;;;;;4965050;28;20073;-75
2023/02/22 06:44:44;;;;;;;7.78;6.78;;;7.50;99.90;;;;;;4962728;28;20051;-75
2023/02/22 06:47:11;;;;;;;7.05;6.00;;;7.60;99.90;;;;;;4972416;28;20146;-76
2023/02/22 06:49:38;;;;;;;7.50;6.28;;;7.60;99.90;;;;;;4963637;28;20118;-76
2023/02/22 06:52:05;;;;;;;7.82;5.72;;;7.60;99.90;;;;;;4973801;28;20083;-76
2023/02/22 06:54:32;;;;;;;7.38;6.03;;;7.70;99.90;;;;;;4962046;28;20402;-76
2023/02/22 06:56:59;;;;;;;6.63;5.72;;;7.70;99.90;;;;;;4959920;28;20090;-75
2023/02/22 06:59:26;;;;;;;6.68;5.45;;;7.70;99.90;;;;;;4954014;28;20051;-76
2023/02/22 07:01:53;;;;;;;7.82;6.22;;;7.70;99.90;;;;;;4972651;28;20046;-76
2023/02/22 07:04:20;;;;;;;6.22;5.43;;;7.70;99.90;;;;;;4973596;28;20718;-76
2023/02/22 07:06:48;;;;;;;6.78;5.65;;;7.70;99.90;;;;;;4944670;28;20126;-76
2023/02/22 07:09:15;;;;;;;6.05;4.93;;;7.70;99.90;;;;;;4958199;28;20133;-76
2023/02/22 07:11:42;;;;;;;7.03;5.70;;;7.70;99.90;;;;;;4956930;28;20043;-76
2023/02/22 07:14:09;;;;;;;6.88;5.82;;;7.70;99.90;;;;;;4928859;28;20047;-76
2023/02/22 07:16:35;;;;;;;6.45;5.30;;;7.60;99.90;;;;;;4941742;28;20153;-75
2023/02/22 07:19:02;;;;;;;6.25;5.03;;;7.70;99.90;;;;;;4973713;28;20058;-77
2023/02/22 07:21:29;;;;;;;7.70;6.45;;;7.70;99.90;;;;;;4942854;28;20051;-75
2023/02/22 07:23:57;;;;;;;6.68;5.47;;;7.70;99.90;;;;;;4960903;28;20089;-76
2023/02/22 07:26:24;;;;;;;8.07;6.13;;;7.60;99.90;;;;;;4960854;28;20047;-75
2023/02/22 07:28:51;;;;;;;9.20;6.00;;;7.60;99.90;;;;;;4974416;28;20140;-75
2023/02/22 07:31:18;;;;;;;7.78;5.97;;;7.50;99.90;;;;;;4929911;28;20731;-76
2023/02/22 07:33:46;;;;;;;5.80;5.10;;;7.50;99.90;;;;;;4945247;28;20047;-76
2023/02/22 07:36:16;;;;;;;5.70;4.65;;;7.60;99.90;;;;;;4929262;28;20223;-75
2023/02/22 07:38:46;;;;;;;6.18;5.18;;;7.60;99.90;;;;;;4961728;28;20207;-75
2023/02/22 07:41:13;;;;;;;5.88;4.63;;;7.60;99.90;;;;;;4945133;28;20054;-76
2023/02/22 07:43:41;;;;;;;5.88;4.70;;;7.60;99.90;;;;;;4973240;28;20054;-75
2023/02/22 07:46:07;;;;;;;7.25;5.15;;;7.60;99.90;;;;;;4953648;28;20109;-75
2023/02/22 07:48:34;;;;;;;6.15;4.90;;;7.70;99.90;;;;;;4945208;28;20100;-76
2023/02/22 07:51:01;;;;;;;5.80;4.78;;;7.70;99.90;;;;;;4945475;28;20051;-75
2023/02/22 07:53:29;;;;;;;5.13;4.10;;;7.70;99.90;;;;;;4974042;28;20051;-76
2023/02/22 07:55:56;;;;;;;6.13;5.20;;;7.70;99.90;;;;;;4947617;28;20063;-76
2023/02/22 07:58:24;;;;;;;6.07;4.53;;;7.80;99.90;;;;;;4956453;28;20093;-75
2023/02/22 08:00:51;;;;;;;5.63;4.30;;;7.80;99.90;;;;;;4959277;28;20114;-76
2023/02/22 08:03:19;;;;;;;6.07;4.68;;;7.80;99.90;;;;;;4955975;28;20105;-76
2023/02/22 08:05:48;;;;;;;5.57;4.68;;;7.80;99.90;;;;;;4953027;28;20395;-76
2023/02/22 08:08:16;;;;;;;5.93;4.28;;;7.90;99.90;;;;;;4974424;28;20061;-76
2023/02/22 08:10:45;;;;;;;6.20;4.93;;;7.90;99.90;;;;;;4974596;28;20055;-76
2023/02/22 08:13:12;;;;;;;6.90;4.70;;;7.90;99.90;;;;;;4975770;28;20383;-75
2023/02/22 08:15:39;;;;;;;6.20;4.63;;;7.90;99.90;;;;;;4979639;28;20051;-76
2023/02/22 08:18:08;;;;;;;4.95;3.80;;;7.90;99.90;;;;;;4962882;28;20537;-75
2023/02/22 08:20:36;;;;;;;6.22;5.15;;;8.00;99.90;;;;;;4979498;28;20051;-75
2023/02/22 08:23:04;;;;;;;6.10;4.80;;;8.00;99.90;;;;;;4956995;28;20054;-76
2023/02/22 08:25:31;;;;;;;7.25;5.70;;;8.00;99.90;;;;;;4959388;28;20279;-75
2023/02/22 08:28:00;;;;;;;6.65;5.10;;;8.10;99.90;;;;;;4973518;28;20080;-75
2023/02/22 08:30:28;;;;;;;7.75;5.65;;;8.10;99.90;;;;;;4951009;28;20639;-75
2023/02/22 08:32:55;;;;;;;7.32;5.53;;;8.10;99.90;;;;;;4943484;28;20540;-75
2023/02/22 08:35:22;;;;;;;8.93;6.47;;;8.10;99.90;;;;;;4959546;28;20051;-75
2023/02/22 08:37:54;;;;;;;7.50;6.00;;;8.10;99.90;;;;;;4963351;28;20055;-75
2023/02/22 08:40:22;;;;;;;6.60;5.28;;;8.10;99.90;;;;;;4947067;28;20061;-75
2023/02/22 08:42:48;;;;;;;5.40;4.60;;;8.10;99.90;;;;;;4956236;28;20391;-75
2023/02/22 08:45:16;;;;;;;7.25;5.72;;;8.00;99.90;;;;;;4956027;28;20078;-75
2023/02/22 08:47:43;;;;;;;5.65;4.47;;;8.00;99.90;;;;;;4950757;28;20054;-75
2023/02/22 08:50:21;;;;;;;6.10;4.72;;;8.00;99.90;;;;;;4950971;28;20350;-75
2023/02/22 08:52:58;;;;;;;5.28;4.22;;;8.10;99.90;;;;;;4953584;28;20641;-75
2023/02/22 08:55:28;;;;;;;4.97;3.88;;;8.10;99.90;;;;;;4936909;28;20162;-75
2023/02/22 08:57:55;;;;;;;6.32;4.40;;;8.20;99.90;;;;;;4935154;28;20082;-75
2023/02/22 09:00:25;;;;;;;5.70;4.28;;;8.20;99.90;;;;;;4950634;28;20055;-76
2023/02/22 09:02:52;;;;;;;5.30;4.05;;;8.20;99.90;;;;;;4953256;28;20047;-75
2023/02/22 09:05:18;;;;;;;6.18;4.65;;;8.20;99.90;;;;;;4951342;28;20075;-76
2023/02/22 09:07:45;;;;;;;4.93;3.67;;;8.20;99.90;;;;;;4953584;28;20050;-75
2023/02/22 09:10:14;;;;;;;4.80;3.63;;;8.20;99.90;;;;;;4954107;28;20134;-76
2023/02/22 09:12:42;;;;;;;5.20;3.85;;;8.20;99.90;;;;;;4952452;28;20051;-75
2023/02/22 09:15:09;;;;;;;5.15;3.63;;;8.20;99.90;;;;;;4948836;28;20551;-75
2023/02/22 09:17:36;;;;;;;4.25;2.97;;;8.20;99.90;;;;;;4951913;28;20046;-76
2023/02/22 09:20:26;;;;;;;4.43;3.00;;;8.20;99.90;;;;;;4947696;28;20129;-75
2023/02/22 09:22:54;;;;;;;3.42;2.58;;;8.20;99.90;;;;;;4958584;28;20070;-75
2023/02/22 09:25:21;;;;;;;4.22;3.47;;;8.20;99.90;;;;;;4956144;28;20478;-75
2023/02/22 09:27:51;;;;;;;4.18;3.03;;;8.20;99.90;;;;;;4945858;28;20051;-76
2023/02/22 09:30:19;;;;;;;3.97;2.60;;;8.30;99.90;;;;;;4946220;28;20068;-76
2023/02/22 09:32:46;;;;;;;2.72;2.28;;;8.30;99.90;;;;;;4958838;28;20513;-75
2023/02/22 09:35:13;;;;;;;3.88;2.80;;;8.40;99.90;;;;;;4955220;28;20087;-75
2023/02/22 09:37:43;;;;;;;4.20;2.90;;;8.40;99.90;;;;;;4955082;28;20046;-74
2023/02/22 09:40:23;;;;;;;4.15;3.30;;;8.40;99.90;;;;;;4944285;28;20134;-75
2023/02/22 09:43:15;;;;;;;4.78;3.28;;;8.40;99.90;;;;;;4961586;28;20043;-76
2023/02/22 09:46:10;;;;;;;5.55;3.70;;;8.50;99.90;;;;;;4949939;28;20431;-74
2023/02/22 09:49:04;;;;;;;4.80;3.70;;;8.50;99.90;;;;;;4957791;28;20046;-74
2023/02/22 09:51:40;;;;;;;4.82;3.40;;;8.50;99.90;;;;;;4955051;28;20065;-74
2023/02/22 09:54:33;;;;;;;3.70;3.08;;;8.70;99.90;;;;;;4956419;28;20054;-75
2023/02/22 09:57:03;;;;;;;4.20;3.10;;;8.80;99.90;;;;;;4959875;28;20109;-78
2023/02/22 09:59:33;;;;;;;3.72;3.22;;;8.80;99.90;;;;;;4955329;28;20146;-76
2023/02/22 10:02:23;;;;;;;4.00;3.20;;;8.80;99.90;;;;;;4952760;28;20082;-74
2023/02/22 10:05:16;;;;;;;5.85;5.00;;;8.90;99.90;;;;;;4971741;28;20042;-73
2023/02/22 10:07:50;;;;;;;5.03;4.18;;;8.80;99.90;;;;;;4971354;28;20101;-74
2023/02/22 10:10:19;;;;;;;5.15;3.88;;;8.80;99.90;;;;;;4926130;28;20138;-75
2023/02/22 10:13:04;;;;;;;4.63;3.65;;;8.80;99.90;;;;;;4965966;28;20050;-75
2023/02/22 10:15:44;;;;;;;6.00;4.55;;;8.90;99.90;;;;;;4977662;28;20512;-75
2023/02/22 10:18:20;;;;;;;6.05;4.22;;;8.90;99.90;;;;;;4973606;28;20434;-79
2023/02/22 10:20:51;;;;;;;4.22;3.60;;;8.90;99.90;;;;;;4946670;28;20091;-80
2023/02/22 10:23:24;;;;;;;4.75;3.83;;;9.00;99.90;;;;;;4942288;28;20510;-79
2023/02/22 10:25:53;;;;;;;;;;;8.90;99.90;;;;;;4957737;28;20107;-80
2023/02/22 10:28:25;;;;;;;5.32;4.55;;;8.90;99.90;;;;;;4977590;28;19930;-80
2023/02/22 10:30:55;;;;;;;5.13;3.97;;;8.90;99.90;;;;;;4962903;28;20137;-81
2023/02/22 10:33:25;;;;;;;6.13;4.05;;;8.90;99.90;;;;;;4961512;28;20305;-81
2023/02/22 10:35:52;;;;;;;6.78;5.85;;;9.00;99.90;;;;;;4979983;28;20506;-81
2023/02/22 10:38:24;;;;;;;6.60;5.90;;;8.90;99.90;;;;;;4949883;28;20077;-81
2023/02/22 10:40:59;;;;;;;5.88;4.88;;;8.90;99.90;;;;;;4982208;28;20078;-82
2023/02/22 10:43:26;;;;;;;6.10;4.55;;;8.90;99.90;;;;;;4964961;28;20085;-80
2023/02/22 10:45:55;;;;;;;6.35;5.68;;;8.90;99.90;;;;;;4973257;28;20059;-82
2023/02/22 10:48:23;;;;;;;4.75;3.85;;;8.90;99.90;;;;;;4965151;28;20050;-82
2023/02/22 10:50:51;;;;;;;4.57;3.80;;;9.00;99.90;;;;;;4948980;28;20145;-82
2023/02/22 10:53:18;;;;;;;6.07;4.82;;;9.00;99.90;;;;;;4962127;28;20138;-82
2023/02/22 10:56:07;;;;;;;5.18;4.13;;;9.00;99.90;;;;;;4963651;28;20053;-82
2023/02/22 10:58:58;;;;;;;3.72;3.28;;;9.00;99.90;;;;;;4962231;28;20057;-81
2023/02/22 11:01:30;;;;;;;5.38;3.92;;;9.10;99.90;;;;;;4946043;29;20059;-81
2023/02/22 11:04:18;;;;;;;5.03;4.13;;;9.10;99.90;;;;;;4977898;28;20132;-81
2023/02/22 11:06:47;;;;;;;4.50;3.45;;;9.10;99.90;;;;;;4984407;28;20054;-81
2023/02/22 11:09:16;;;;;;;4.78;3.88;;;9.20;99.90;;;;;;4981249;28;20613;-81
2023/02/22 11:11:45;;;;;;;5.75;4.30;;;9.20;99.90;;;;;;4981278;28;20473;-81
2023/02/22 11:14:32;;;;;;;7.07;5.53;;;9.30;99.90;;;;;;4968075;28;20098;-81
2023/02/22 11:17:00;;;;;;;6.18;4.93;;;9.40;99.90;;;;;;4964441;28;20054;-81
2023/02/22 11:19:30;;;;;;;5.50;4.30;;;9.40;99.90;;;;;;4949195;28;20055;-81
2023/02/22 11:22:04;;;;;;;5.38;4.43;;;9.30;99.90;;;;;;4949507;28;20047;-80
2023/02/22 11:24:31;;;;;;;6.00;5.40;;;9.40;99.90;;;;;;4962708;28;20351;-81
2023/02/22 11:27:09;;;;;;;4.45;3.60;;;9.50;99.90;;;;;;4962425;28;20055;-81
2023/02/22 11:29:36;;;;;;;4.43;3.95;;;9.50;99.90;;;;;;4948403;28;20129;-81
2023/02/22 11:32:19;;;;;;;5.88;3.97;;;9.60;99.90;;;;;;4980699;28;20081;-81
2023/02/22 11:34:48;;;;;;;5.43;4.15;;;9.50;99.90;;;;;;4949487;28;20102;-82
2023/02/22 11:37:24;;;;;;;4.93;3.90;;;9.50;99.90;;;;;;4950408;28;20105;-81
2023/02/22 11:40:11;;;;;;;5.10;4.20;;;9.40;99.90;;;;;;4965032;28;20097;-81
2023/02/22 11:42:38;;;;;;;4.90;3.78;;;9.40;99.90;;;;;;4964642;28;20050;-79
2023/02/22 11:45:20;;;;;;;7.05;5.72;;;9.40;99.90;;;;;;4972076;28;20155;-78
2023/02/22 11:47:51;;;;;;;6.05;4.63;;;9.30;99.90;;;;;;4963106;28;20113;-81
2023/02/22 11:50:30;;;;;;;6.55;5.35;;;9.20;99.90;;;;;;4974297;28;20042;-80
2023/02/22 11:53:22;;;;;;;6.18;5.20;;;9.20;99.90;;;;;;4961876;28;20057;-81
2023/02/22 11:55:55;;;;;;;5.90;4.78;;;9.10;99.90;;;;;;4973294;28;20050;-82
2023/02/22 11:58:21;;;;;;;5.55;4.18;;;9.20;99.90;;;;;;4960175;28;20332;-81
2023/02/22 12:00:59;;;;;;;5.05;4.43;;;9.40;99.90;;;;;;4956571;28;20121;-82
2023/02/22 12:03:51;;;;;;;5.20;4.25;;;9.50;99.90;;;;;;4971282;28;20101;-82
2023/02/22 12:06:24;;;;;;;3.88;3.25;;;9.60;99.90;;;;;;4958503;28;20480;-80
2023/02/22 12:08:57;;;;;;;2.92;2.67;;;9.60;99.90;;;;;;4942454;28;20165;-81
2023/02/22 12:11:30;;;;;;;;;;;9.70;99.90;;;;;;4960479;28;20490;-80
2023/02/22 12:14:16;;;;;;;4.60;3.65;;;9.70;99.90;;;;;;4958815;28;19922;-80
2023/02/22 12:17:00;;;;;;;4.28;3.70;;;9.60;99.90;;;;;;4938155;29;20067;-81
2023/02/22 12:19:48;;;;;;;3.92;3.50;;;9.70;99.90;;;;;;4944289;28;20074;-81
2023/02/22 12:22:21;;;;;;;4.28;3.67;;;9.70;99.90;;;;;;4959775;28;20054;-80
2023/02/22 12:24:54;;;;;;;4.50;3.47;;;9.60;99.90;;;;;;4954655;28;20096;-80
2023/02/22 12:27:38;;;;;;;5.55;3.53;;;9.60;99.90;;;;;;4960438;28;20054;-80
2023/02/22 12:30:27;;;;;;;4.32;3.47;;;9.60;99.90;;;;;;4946528;28;20138;-80
2023/02/22 12:32:57;;;;;;;5.32;4.68;;;9.50;99.90;;;;;;4952208;28;20239;-79
2023/02/22 12:35:25;;;;;;;6.00;4.72;;;9.40;99.90;;;;;;4949376;28;20117;-79
2023/02/22 12:38:32;;;;;;;6.53;4.70;;;9.30;99.90;;;;;;4956604;28;20150;-79
2023/02/22 12:41:37;;;;;;;5.35;4.45;;;9.30;99.90;;;;;;4941496;28;20057;-79
2023/02/22 12:44:09;;;;;;;3.80;3.20;;;9.30;99.90;;;;;;4970382;28;20054;-80
2023/02/22 12:46:55;;;;;;;4.38;3.50;;;9.40;99.90;;;;;;4966751;28;20177;-79
2023/02/22 12:49:59;;;;;;;4.93;4.43;;;9.30;99.90;;;;;;4947687;28;20050;-79
2023/02/22 12:52:45;;;;;;;5.93;5.00;;;9.30;99.90;;;;;;4959390;28;20105;-79
2023/02/22 12:55:44;;;;;;;6.00;4.72;;;9.30;99.90;;;;;;4958284;28;20150;-79
2023/02/22 12:58:24;;;;;;;4.55;3.88;;;9.30;99.90;;;;;;4927316;28;20141;-79
2023/02/22 13:01:18;;;;;;;5.10;4.13;;;9.30;99.90;;;;;;4943725;28;20164;-79
2023/02/22 13:03:47;;;;;;;5.60;5.10;;;9.30;99.90;;;;;;4948982;28;20046;-79
2023/02/22 13:06:30;;;;;;;5.57;4.85;;;9.30;99.90;;;;;;4952228;28;20109;-79
2023/02/22 13:09:02;;;;;;;5.80;4.93;;;9.30;99.90;;;;;;4968898;28;20065;-79
2023/02/22 13:11:33;;;;;;;5.22;4.65;;;9.30;99.90;;;;;;4972684;28;20054;-79
2023/02/22 13:14:35;;;;;;;5.82;5.22;;;9.30;99.90;;;;;;4972011;28;20477;-79
2023/02/22 13:17:05;;;;;;;5.53;4.78;;;9.40;99.90;;;;;;4882553;29;20564;-79
2023/02/22 13:19:54;;;;;;;5.45;4.57;;;9.40;99.90;;;;;;4953779;28;20138;-77
2023/02/22 13:22:32;;;;;;;5.95;5.28;;;9.40;99.90;;;;;;4958290;28;20659;-78